Time;durP1;ratioP1;P1;durP2;ratioP2;P2;SDS_P1;SDS_P2;PMS_P1;PMS_P2;Temp;Humidity;BMP_temperature;BMP_pressure;BME280_temperature;BME280_humidity;BME280_pressure;Samples;Min_cycle;Max_cycle;Signal;HPM_P1;HPM_P2
2023/05/30 00:00:07;;;;;;;7.43;4.37;;;15.30;70.10;;;;;;5011960;28;20480;-68
2023/05/30 00:02:35;;;;;;;5.30;4.43;;;15.30;70.20;;;;;;5011596;28;20447;-69
2023/05/30 00:05:03;;;;;;;6.03;3.77;;;15.20;71.70;;;;;;5012073;28;20450;-68
2023/05/30 00:07:32;;;;;;;5.93;3.87;;;15.00;73.20;;;;;;5011743;28;20954;-69
2023/05/30 00:10:01;;;;;;;5.77;4.20;;;14.90;72.80;;;;;;5011686;28;20963;-69
2023/05/30 00:12:29;;;;;;;5.37;4.87;;;14.90;69.20;;;;;;5011274;28;21103;-68
2023/05/30 00:14:59;;;;;;;4.87;4.00;;;15.30;68.00;;;;;;5011288;28;20452;-68
2023/05/30 00:17:27;;;;;;;6.37;4.10;;;15.60;66.10;;;;;;5011640;28;20871;-69
2023/05/30 00:19:56;;;;;;;4.60;3.90;;;15.90;64.90;;;;;;5011146;28;20628;-69
2023/05/30 00:22:25;;;;;;;4.87;3.90;;;16.10;64.60;;;;;;5011183;28;20446;-69
2023/05/30 00:24:53;;;;;;;4.03;3.63;;;16.10;64.20;;;;;;5011200;28;20953;-68
2023/05/30 00:27:22;;;;;;;7.80;4.40;;;16.20;64.00;;;;;;5011155;28;21078;-68
2023/05/30 00:29:50;;;;;;;6.30;4.97;;;16.00;64.50;;;;;;5011346;28;20564;-68
2023/05/30 00:32:18;;;;;;;8.63;4.50;;;16.00;65.10;;;;;;5011168;28;20937;-68
2023/05/30 00:34:46;;;;;;;7.40;4.60;;;15.90;65.40;;;;;;5011092;28;20445;-68
2023/05/30 00:37:14;;;;;;;5.83;4.67;;;15.80;66.30;;;;;;5010840;28;20454;-68
2023/05/30 00:39:42;;;;;;;5.20;4.30;;;15.60;68.60;;;;;;5011287;28;20468;-68
2023/05/30 00:42:10;;;;;;;6.80;4.57;;;15.40;69.10;;;;;;5010921;28;20597;-68
2023/05/30 00:44:39;;;;;;;4.90;4.40;;;15.20;68.70;;;;;;5010640;28;20456;-69
2023/05/30 00:47:07;;;;;;;8.17;4.63;;;15.30;68.90;;;;;;5010907;28;20865;-68
2023/05/30 00:49:35;;;;;;;6.73;4.60;;;15.40;67.50;;;;;;5010212;28;20505;-68
2023/05/30 00:52:04;;;;;;;5.70;5.07;;;15.50;67.10;;;;;;5010938;28;20865;-68
2023/05/30 00:54:32;;;;;;;6.10;4.30;;;15.50;67.20;;;;;;5010408;28;20442;-68
2023/05/30 00:57:01;;;;;;;7.60;4.87;;;15.50;67.10;;;;;;5010766;28;20527;-68
2023/05/30 00:59:29;;;;;;;5.90;4.37;;;15.50;67.60;;;;;;5010696;28;20477;-68
2023/05/30 01:01:58;;;;;;;9.60;5.00;;;15.40;68.10;;;;;;5010534;28;20571;-68
2023/05/30 01:04:26;;;;;;;6.40;4.97;;;15.40;67.80;;;;;;5010340;28;20944;-68
2023/05/30 01:06:54;;;;;;;5.00;4.50;;;15.40;67.80;;;;;;5010721;28;20999;-68
2023/05/30 01:09:22;;;;;;;8.10;4.63;;;15.50;67.80;;;;;;5010836;28;20466;-68
2023/05/30 01:12:00;;;;;;;5.30;4.27;;;15.40;67.90;;;;;;5010854;28;20437;-68
2023/05/30 01:14:38;;;;;;;10.67;4.67;;;15.40;68.00;;;;;;5010234;28;20454;-68
2023/05/30 01:17:14;;;;;;;6.17;4.50;;;15.40;68.10;;;;;;5010623;28;20438;-68
2023/05/30 01:19:59;;;;;;;6.83;4.73;;;15.40;67.80;;;;;;5010324;28;20492;-68
2023/05/30 01:22:37;;;;;;;5.80;5.00;;;15.40;68.40;;;;;;5010220;28;20575;-68
2023/05/30 01:25:18;;;;;;;7.27;5.17;;;15.30;68.90;;;;;;5010269;28;20954;-67
2023/05/30 01:28:09;;;;;;;5.17;4.30;;;15.20;70.60;;;;;;5010069;28;20499;-68
2023/05/30 01:30:41;;;;;;;4.30;3.90;;;15.00;74.70;;;;;;5010318;28;20525;-68
2023/05/30 01:33:09;;;;;;;5.50;4.23;;;14.80;74.60;;;;;;5010045;28;20537;-69
2023/05/30 01:35:37;;;;;;;7.00;4.43;;;14.70;74.60;;;;;;5010249;28;20493;-68
2023/05/30 01:38:05;;;;;;;4.43;4.03;;;14.50;75.30;;;;;;5010001;28;20471;-69
2023/05/30 01:40:34;;;;;;;5.77;4.77;;;14.40;74.70;;;;;;5009880;28;20495;-68
2023/05/30 01:43:09;;;;;;;6.73;4.43;;;14.40;76.40;;;;;;5010048;28;20445;-69
2023/05/30 01:45:46;;;;;;;5.63;5.10;;;14.30;76.50;;;;;;5010136;28;20451;-68
2023/05/30 01:48:19;;;;;;;7.63;4.80;;;14.20;80.00;;;;;;5009940;28;20469;-68
2023/05/30 01:50:50;;;;;;;6.00;4.50;;;14.10;76.00;;;;;;5010227;28;20440;-68
2023/05/30 01:53:23;;;;;;;4.33;3.93;;;14.30;74.50;;;;;;5009796;28;20456;-68
2023/05/30 01:55:56;;;;;;;7.90;4.10;;;14.50;73.60;;;;;;5010218;28;20441;-68
2023/05/30 01:58:25;;;;;;;5.53;4.17;;;14.70;73.10;;;;;;5010021;28;20523;-68
2023/05/30 02:00:55;;;;;;;7.53;4.40;;;14.80;72.50;;;;;;5013112;28;20578;-68
2023/05/30 02:03:24;;;;;;;7.00;4.50;;;14.80;72.30;;;;;;5013085;28;20488;-69
2023/05/30 02:05:52;;;;;;;6.80;4.30;;;14.80;72.20;;;;;;5014246;28;21015;-68
2023/05/30 02:08:20;;;;;;;7.07;4.90;;;14.80;72.20;;;;;;5013799;28;21052;-68
2023/05/30 02:10:48;;;;;;;6.80;4.40;;;14.80;72.20;;;;;;5014012;28;20454;-69
2023/05/30 02:13:16;;;;;;;5.17;4.53;;;14.80;72.40;;;;;;5013566;28;20827;-68
2023/05/30 02:15:46;;;;;;;4.30;3.80;;;14.70;72.60;;;;;;5013839;28;20449;-69
2023/05/30 02:18:14;;;;;;;6.50;4.57;;;14.70;73.20;;;;;;5014016;28;20853;-68
2023/05/30 02:20:42;;;;;;;7.67;5.33;;;14.60;73.60;;;;;;5013931;28;20488;-69
2023/05/30 02:23:10;;;;;;;9.60;4.80;;;14.50;75.30;;;;;;5013685;28;20463;-68
2023/05/30 02:25:38;;;;;;;4.43;4.03;;;14.30;78.90;;;;;;5013923;28;20532;-68
2023/05/30 02:28:06;;;;;;;5.67;4.73;;;14.10;78.90;;;;;;5013703;28;20520;-68
2023/05/30 02:30:33;;;;;;;6.30;4.63;;;13.90;77.60;;;;;;5013937;28;20448;-69
2023/05/30 02:33:03;;;;;;;9.23;4.17;;;14.00;77.10;;;;;;5013106;28;20437;-68
2023/05/30 02:35:31;;;;;;;5.47;4.40;;;14.10;76.60;;;;;;5013584;28;20446;-68
2023/05/30 02:37:59;;;;;;;6.40;4.53;;;14.20;76.20;;;;;;5013209;28;20501;-68
2023/05/30 02:40:27;;;;;;;6.00;5.23;;;14.30;75.90;;;;;;5013211;28;20952;-68
2023/05/30 02:42:55;;;;;;;6.83;4.93;;;14.30;75.80;;;;;;5013063;28;21175;-68
2023/05/30 02:45:26;;;;;;;6.80;4.77;;;14.30;75.70;;;;;;5013325;28;20472;-69
2023/05/30 02:47:54;;;;;;;7.23;5.70;;;14.30;75.80;;;;;;5013545;28;20561;-68
2023/05/30 02:50:23;;;;;;;9.40;6.50;;;14.30;76.10;;;;;;5013281;28;20462;-68
2023/05/30 02:52:51;;;;;;;6.50;5.23;;;14.30;76.00;;;;;;5012814;28;20445;-67
2023/05/30 02:55:20;;;;;;;9.87;7.00;;;14.20;76.20;;;;;;5012767;28;20450;-68
2023/05/30 02:57:47;;;;;;;8.00;5.30;;;14.20;76.60;;;;;;5013087;28;20464;-68
2023/05/30 03:00:16;;;;;;;8.70;5.53;;;14.10;78.40;;;;;;5012828;28;20508;-68
2023/05/30 03:02:46;;;;;;;6.57;5.87;;;14.10;77.50;;;;;;5012506;28;20490;-68
2023/05/30 03:05:14;;;;;;;6.10;4.90;;;14.00;77.50;;;;;;5012850;28;20442;-68
2023/05/30 03:07:43;;;;;;;9.43;5.07;;;14.00;77.80;;;;;;5012888;28;20449;-68
2023/05/30 03:10:11;;;;;;;6.30;4.90;;;14.00;77.60;;;;;;5012948;28;20539;-68
2023/05/30 03:12:39;;;;;;;5.57;5.00;;;13.90;77.90;;;;;;5011646;28;20942;-68
2023/05/30 03:15:09;;;;;;;5.67;4.80;;;13.90;78.70;;;;;;5012655;28;20493;-68
2023/05/30 03:17:38;;;;;;;7.33;4.97;;;13.90;78.60;;;;;;5012484;28;20443;-68
2023/05/30 03:20:08;;;;;;;8.63;5.03;;;13.90;78.40;;;;;;5012482;28;20475;-68
2023/05/30 03:22:36;;;;;;;11.40;5.53;;;14.00;78.10;;;;;;5011853;28;20488;-68
2023/05/30 03:25:06;;;;;;;7.43;4.50;;;14.00;78.30;;;;;;5012680;28;20908;-68
2023/05/30 03:27:34;;;;;;;5.70;4.13;;;13.90;78.40;;;;;;5012504;28;20475;-68
2023/05/30 03:30:03;;;;;;;5.07;4.33;;;13.90;78.70;;;;;;5012460;28;20507;-67
2023/05/30 03:32:31;;;;;;;7.23;4.73;;;13.90;78.40;;;;;;5012167;28;20473;-68
2023/05/30 03:34:59;;;;;;;6.63;4.70;;;13.90;78.90;;;;;;5012141;28;21017;-68
2023/05/30 03:37:27;;;;;;;7.30;4.43;;;13.90;79.10;;;;;;5012366;28;20517;-68
2023/05/30 03:39:55;;;;;;;6.50;5.40;;;13.80;79.80;;;;;;5012412;28;20468;-67
2023/05/30 03:42:24;;;;;;;6.00;4.80;;;13.70;82.60;;;;;;5012362;28;20475;-68
2023/05/30 03:44:52;;;;;;;8.07;5.20;;;13.60;86.30;;;;;;5011936;28;20469;-68
2023/05/30 03:47:20;;;;;;;6.13;5.33;;;13.40;86.90;;;;;;5012157;28;20450;-68
2023/05/30 03:49:48;;;;;;;6.07;4.37;;;13.30;87.00;;;;;;5012160;28;20466;-68
2023/05/30 03:52:16;;;;;;;7.30;5.53;;;13.10;88.90;;;;;;5011951;28;20451;-67
2023/05/30 03:54:44;;;;;;;7.30;5.03;;;13.00;87.30;;;;;;5011670;28;20486;-68
2023/05/30 03:57:12;;;;;;;10.00;5.47;;;13.00;88.00;;;;;;5011987;28;20477;-68
2023/05/30 03:59:42;;;;;;;9.43;5.13;;;12.90;88.20;;;;;;5011816;28;20468;-68
2023/05/30 04:02:10;;;;;;;10.83;5.80;;;13.00;88.50;;;;;;5011618;28;20564;-68
2023/05/30 04:04:38;;;;;;;9.17;5.00;;;13.10;88.70;;;;;;5011649;28;20508;-68
2023/05/30 04:07:06;;;;;;;13.63;5.83;;;13.10;88.40;;;;;;5011829;28;20453;-68
2023/05/30 04:09:34;;;;;;;7.40;5.00;;;13.20;88.40;;;;;;5011521;28;20471;-68
2023/05/30 04:12:02;;;;;;;8.10;5.40;;;13.20;88.80;;;;;;5011793;28;20464;-67
2023/05/30 04:14:30;;;;;;;7.07;5.90;;;13.20;90.00;;;;;;5011313;28;20534;-68
2023/05/30 04:16:59;;;;;;;5.90;5.27;;;13.20;91.90;;;;;;5011554;28;20453;-68
2023/05/30 04:19:27;;;;;;;8.10;5.30;;;13.20;92.60;;;;;;5011600;28;20458;-68
2023/05/30 04:21:55;;;;;;;7.00;5.00;;;13.20;93.50;;;;;;5011713;28;20475;-68
2023/05/30 04:24:23;;;;;;;8.40;5.00;;;13.20;91.20;;;;;;5010345;28;20471;-67
2023/05/30 04:26:51;;;;;;;8.43;5.07;;;13.20;90.90;;;;;;5011574;28;20465;-68
2023/05/30 04:29:20;;;;;;;10.90;5.40;;;13.20;91.90;;;;;;5011320;28;20464;-68
2023/05/30 04:31:49;;;;;;;6.10;4.93;;;13.30;93.40;;;;;;5011322;28;21101;-68
2023/05/30 04:34:22;;;;;;;7.17;5.80;;;13.40;93.40;;;;;;5011193;28;20982;-68
2023/05/30 04:36:53;;;;;;;6.40;5.53;;;13.40;94.10;;;;;;5011339;28;21150;-68
2023/05/30 04:39:23;;;;;;;8.27;4.90;;;13.40;94.10;;;;;;5011519;28;20942;-68
2023/05/30 04:41:54;;;;;;;6.47;5.77;;;13.40;95.30;;;;;;5011339;28;20449;-68
2023/05/30 04:44:23;;;;;;;7.70;6.57;;;13.40;94.10;;;;;;5011166;28;20489;-68
2023/05/30 04:46:51;;;;;;;6.67;5.73;;;13.50;94.80;;;;;;5011458;28;20434;-67
2023/05/30 04:49:19;;;;;;;10.80;6.10;;;13.60;94.70;;;;;;5011128;28;21217;-68
2023/05/30 04:51:48;;;;;;;10.80;6.10;;;13.70;94.50;;;;;;5011037;28;20525;-68
2023/05/30 04:54:16;;;;;;;7.50;4.90;;;13.80;93.40;;;;;;5010513;28;20473;-68
2023/05/30 04:56:44;;;;;;;9.00;5.90;;;13.90;93.50;;;;;;5011041;28;20442;-68
2023/05/30 04:59:11;;;;;;;9.90;5.73;;;13.90;94.80;;;;;;5010773;28;20991;-68
2023/05/30 05:01:41;;;;;;;6.17;5.10;;;14.00;94.40;;;;;;5010843;28;20870;-68
2023/05/30 05:04:09;;;;;;;6.30;5.70;;;14.00;94.60;;;;;;5010220;28;20519;-68
2023/05/30 05:06:37;;;;;;;6.43;5.43;;;14.20;93.00;;;;;;5010566;28;20470;-68
2023/05/30 05:09:06;;;;;;;8.60;5.57;;;14.30;93.60;;;;;;5010883;28;20469;-68
2023/05/30 05:11:34;;;;;;;8.27;4.83;;;14.40;93.20;;;;;;5010741;28;20571;-68
2023/05/30 05:14:02;;;;;;;9.80;5.90;;;14.60;92.70;;;;;;5010349;28;20476;-68
2023/05/30 05:16:30;;;;;;;9.47;5.00;;;14.60;92.40;;;;;;5010402;28;20895;-68
2023/05/30 05:18:58;;;;;;;9.77;5.67;;;14.80;92.40;;;;;;5010469;28;20462;-67
2023/05/30 05:21:26;;;;;;;12.37;6.07;;;14.80;93.10;;;;;;5010598;28;20933;-68
2023/05/30 05:23:54;;;;;;;8.50;5.40;;;15.00;91.60;;;;;;5010345;28;20508;-67
2023/05/30 05:26:23;;;;;;;8.83;5.07;;;15.00;91.60;;;;;;5010401;28;20478;-67
2023/05/30 05:28:52;;;;;;;24.27;10.43;;;15.20;87.20;;;;;;5010264;28;20465;-67
2023/05/30 05:31:20;;;;;;;16.67;7.30;;;15.20;85.10;;;;;;5010460;28;20438;-68
2023/05/30 05:33:48;;;;;;;9.17;5.67;;;15.20;84.70;;;;;;5009877;28;20442;-68
2023/05/30 05:36:16;;;;;;;8.23;5.10;;;15.40;87.20;;;;;;5009966;28;20447;-67
2023/05/30 05:38:44;;;;;;;8.53;5.37;;;15.50;83.80;;;;;;5010387;28;20465;-67
2023/05/30 05:41:12;;;;;;;9.27;5.07;;;15.70;82.20;;;;;;5010082;28;21022;-68
2023/05/30 05:43:41;;;;;;;6.50;5.27;;;15.70;82.60;;;;;;5009720;28;20533;-68
2023/05/30 05:46:09;;;;;;;9.33;6.13;;;15.80;81.80;;;;;;5010128;28;20999;-67
2023/05/30 05:48:37;;;;;;;6.20;5.07;;;15.90;81.00;;;;;;5009917;28;20469;-67
2023/05/30 05:51:05;;;;;;;35.47;8.87;;;15.90;81.20;;;;;;5010305;28;20452;-68
2023/05/30 05:53:35;;;;;;;13.80;5.77;;;16.10;79.60;;;;;;5010027;28;20816;-67
2023/05/30 05:56:03;;;;;;;9.60;5.23;;;16.20;79.40;;;;;;5010155;28;20448;-67
2023/05/30 05:58:31;;;;;;;7.83;5.00;;;16.20;77.20;;;;;;5010278;28;21031;-67
2023/05/30 06:01:00;;;;;;;10.80;4.90;;;16.20;76.70;;;;;;5010246;28;20450;-67
2023/05/30 06:03:28;;;;;;;6.90;4.40;;;16.30;75.10;;;;;;5009572;28;20479;-67
2023/05/30 06:05:57;;;;;;;6.87;4.90;;;16.40;74.60;;;;;;5010152;28;20479;-68
2023/05/30 06:08:25;;;;;;;7.40;4.53;;;16.40;74.00;;;;;;5010127;28;20467;-68
2023/05/30 06:10:53;;;;;;;6.73;5.57;;;16.40;74.40;;;;;;5010118;28;20526;-69
2023/05/30 06:13:21;;;;;;;5.40;4.10;;;16.50;73.80;;;;;;5009554;28;20529;-68
2023/05/30 06:15:49;;;;;;;6.27;4.50;;;16.50;73.50;;;;;;5010367;28;20440;-69
2023/05/30 06:18:18;;;;;;;7.43;5.00;;;16.60;73.00;;;;;;5009987;28;20468;-69
2023/05/30 06:20:46;;;;;;;8.07;4.37;;;16.60;72.80;;;;;;5010083;28;20448;-68
2023/05/30 06:23:14;;;;;;;6.10;4.57;;;16.60;73.30;;;;;;5009693;28;21070;-68
2023/05/30 06:25:42;;;;;;;9.50;4.77;;;16.70;73.10;;;;;;5009950;28;20463;-68
2023/05/30 06:28:10;;;;;;;7.73;4.47;;;16.70;73.20;;;;;;5009966;28;20461;-69
2023/05/30 06:30:38;;;;;;;8.00;5.27;;;16.70;72.70;;;;;;5009753;28;21000;-67
2023/05/30 06:33:06;;;;;;;6.83;4.43;;;16.80;71.60;;;;;;5009949;28;20440;-68
2023/05/30 06:35:35;;;;;;;6.70;4.37;;;16.90;72.30;;;;;;5010266;28;21231;-67
2023/05/30 06:38:03;;;;;;;8.20;4.30;;;16.90;70.80;;;;;;5010047;28;20991;-68
2023/05/30 06:40:31;;;;;;;9.63;4.53;;;16.90;70.30;;;;;;5009856;28;20449;-68
2023/05/30 06:42:59;;;;;;;10.70;4.63;;;17.00;70.90;;;;;;5009859;28;20448;-67
2023/05/30 06:45:27;;;;;;;9.63;4.57;;;16.90;70.20;;;;;;5010463;28;20480;-68
2023/05/30 06:47:55;;;;;;;8.30;4.70;;;17.00;70.30;;;;;;5013041;28;20501;-67
2023/05/30 06:50:23;;;;;;;6.77;4.00;;;17.10;70.20;;;;;;5014133;28;20438;-68
2023/05/30 06:52:52;;;;;;;6.57;4.83;;;17.10;70.60;;;;;;5013541;28;20444;-68
2023/05/30 06:55:20;;;;;;;6.80;4.93;;;17.20;70.50;;;;;;5014577;28;20448;-68
2023/05/30 06:57:53;;;;;;;8.43;4.50;;;17.40;69.20;;;;;;5014036;28;20442;-68
2023/05/30 07:00:22;;;;;;;10.90;5.13;;;17.50;69.00;;;;;;5014000;28;21008;-67
2023/05/30 07:02:51;;;;;;;9.80;4.87;;;17.50;68.80;;;;;;5013722;28;20482;-67
2023/05/30 07:05:19;;;;;;;5.43;4.67;;;17.40;68.30;;;;;;5013405;28;20483;-67
2023/05/30 07:07:47;;;;;;;10.47;5.03;;;17.50;69.00;;;;;;5012993;28;20514;-68
2023/05/30 07:10:16;;;;;;;7.60;4.30;;;17.50;69.50;;;;;;5013358;28;20445;-67
2023/05/30 07:12:44;;;;;;;5.60;4.87;;;17.70;67.40;;;;;;5012980;28;20445;-68
2023/05/30 07:15:13;;;;;;;9.77;4.50;;;17.60;67.90;;;;;;5013448;28;20464;-67
2023/05/30 07:17:41;;;;;;;6.27;4.13;;;17.70;67.70;;;;;;5013264;28;20446;-67
2023/05/30 07:20:10;;;;;;;6.07;3.90;;;17.70;67.60;;;;;;5013175;28;20450;-68
2023/05/30 07:22:38;;;;;;;5.60;4.53;;;17.70;68.80;;;;;;5014049;28;20446;-67
2023/05/30 07:25:07;;;;;;;7.33;4.40;;;17.60;67.50;;;;;;5012695;28;20538;-67
2023/05/30 07:27:36;;;;;;;5.53;4.00;;;17.60;68.30;;;;;;5012799;28;20548;-67
2023/05/30 07:30:05;;;;;;;7.27;4.70;;;17.70;67.50;;;;;;5012531;28;20442;-67
2023/05/30 07:32:33;;;;;;;4.80;4.37;;;17.60;68.70;;;;;;5012148;28;20819;-67
2023/05/30 07:35:01;;;;;;;5.90;4.00;;;17.70;69.10;;;;;;5012590;28;20520;-68
2023/05/30 07:37:29;;;;;;;7.27;4.40;;;17.70;68.30;;;;;;5012312;28;20579;-67
2023/05/30 07:39:57;;;;;;;6.77;4.00;;;17.80;69.10;;;;;;5012223;28;20571;-68
2023/05/30 07:42:27;;;;;;;5.33;4.33;;;17.80;68.00;;;;;;5012008;28;20525;-69
2023/05/30 07:44:56;;;;;;;5.33;3.60;;;17.80;67.10;;;;;;5011917;28;20477;-68
2023/05/30 07:47:24;;;;;;;5.47;4.70;;;17.90;66.00;;;;;;5012402;28;20524;-68
2023/05/30 07:49:52;;;;;;;6.37;4.03;;;17.90;66.30;;;;;;5012249;28;20467;-68
2023/05/30 07:52:20;;;;;;;6.20;4.30;;;18.00;66.00;;;;;;5012126;28;20452;-68
2023/05/30 07:54:48;;;;;;;8.70;5.17;;;18.00;66.70;;;;;;5012019;28;20983;-67
2023/05/30 07:57:16;;;;;;;6.93;4.90;;;18.10;66.50;;;;;;5011654;28;20955;-68
2023/05/30 07:59:45;;;;;;;5.73;3.60;;;18.30;67.40;;;;;;5011804;28;20469;-68
2023/05/30 08:02:14;;;;;;;9.85;5.13;;;18.30;65.30;;;;;;5011473;28;20521;-67
2023/05/30 08:04:42;;;;;;;9.20;4.60;;;18.40;65.80;;;;;;5011684;28;20639;-68
2023/05/30 08:07:10;;;;;;;5.83;4.43;;;18.60;65.90;;;;;;5011774;28;20496;-67
2023/05/30 08:09:38;;;;;;;8.63;4.83;;;18.70;62.40;;;;;;5011679;28;20907;-67
2023/05/30 08:12:07;;;;;;;7.13;4.03;;;18.80;61.50;;;;;;5011655;28;20446;-67
2023/05/30 08:14:35;;;;;;;5.33;3.87;;;19.00;62.60;;;;;;5011316;28;21015;-67
2023/05/30 08:17:06;;;;;;;7.87;4.03;;;19.20;63.70;;;;;;5011891;28;20545;-67
2023/05/30 08:19:36;;;;;;;4.90;3.93;;;19.40;60.50;;;;;;5011586;28;20481;-67
2023/05/30 08:22:04;;;;;;;4.90;3.40;;;19.40;59.70;;;;;;5011640;28;20549;-68
2023/05/30 08:24:32;;;;;;;6.63;3.33;;;19.50;58.80;;;;;;5011328;28;20505;-67
2023/05/30 08:27:00;;;;;;;5.90;4.33;;;19.40;59.40;;;;;;5011461;28;20932;-67
2023/05/30 08:29:28;;;;;;;5.33;4.73;;;19.20;58.90;;;;;;5011340;28;20462;-67
2023/05/30 08:31:56;;;;;;;5.37;4.23;;;19.20;61.70;;;;;;5011481;28;20446;-67
2023/05/30 08:34:24;;;;;;;8.10;4.40;;;19.50;60.30;;;;;;5010881;28;20448;-67
2023/05/30 08:36:55;;;;;;;7.23;4.20;;;19.60;60.40;;;;;;5011162;28;20458;-68
2023/05/30 08:39:23;;;;;;;5.13;3.93;;;19.80;58.30;;;;;;5011215;28;21067;-67
2023/05/30 08:41:51;;;;;;;6.27;4.20;;;19.70;57.90;;;;;;5011369;28;20544;-67
2023/05/30 08:44:19;;;;;;;5.50;3.93;;;19.80;57.70;;;;;;5010795;28;21308;-68
2023/05/30 08:46:47;;;;;;;6.63;4.77;;;19.90;58.80;;;;;;5011244;28;20442;-67
2023/05/30 08:49:21;;;;;;;7.83;4.57;;;20.00;57.80;;;;;;5010955;28;20465;-67
2023/05/30 08:51:53;;;;;;;5.60;4.57;;;19.90;56.90;;;;;;5010944;28;20498;-66
2023/05/30 08:54:25;;;;;;;11.73;5.70;;;20.00;58.00;;;;;;5010637;28;20442;-68
2023/05/30 08:56:58;;;;;;;5.17;4.57;;;20.00;58.30;;;;;;5011116;28;20448;-67
2023/05/30 08:59:27;;;;;;;7.97;4.90;;;20.00;57.20;;;;;;5010660;28;20466;-67
2023/05/30 09:01:56;;;;;;;4.87;3.80;;;20.10;57.00;;;;;;5010714;28;20544;-67
2023/05/30 09:04:25;;;;;;;7.70;4.73;;;20.30;57.80;;;;;;5010321;28;20442;-67
2023/05/30 09:06:56;;;;;;;6.50;4.83;;;20.60;56.60;;;;;;5010758;28;20525;-67
2023/05/30 09:09:26;;;;;;;5.93;3.87;;;20.80;56.60;;;;;;5010225;28;20470;-68
2023/05/30 09:11:54;;;;;;;6.27;4.90;;;20.80;54.80;;;;;;5010771;28;20489;-67
2023/05/30 09:14:22;;;;;;;7.23;4.57;;;20.50;55.70;;;;;;5010276;28;20836;-68
2023/05/30 09:16:50;;;;;;;7.83;3.93;;;20.30;56.00;;;;;;5010663;28;20524;-67
2023/05/30 09:19:19;;;;;;;5.40;4.17;;;20.20;55.90;;;;;;5010793;28;20470;-68
2023/05/30 09:21:47;;;;;;;7.70;5.00;;;20.40;58.60;;;;;;5010658;28;20446;-68
2023/05/30 09:24:16;;;;;;;8.50;4.30;;;20.60;57.20;;;;;;5010582;28;20520;-67
2023/05/30 09:26:58;;;;;;;5.40;4.00;;;20.80;55.60;;;;;;5010781;28;20880;-67
2023/05/30 09:29:27;;;;;;;6.17;3.90;;;20.90;56.10;;;;;;5010750;28;20486;-67
2023/05/30 09:31:56;;;;;;;6.60;4.40;;;20.80;56.10;;;;;;5010394;28;20891;-67
2023/05/30 09:34:24;;;;;;;7.53;4.13;;;21.00;55.80;;;;;;5010178;28;20878;-68
2023/05/30 09:36:56;;;;;;;7.37;3.90;;;21.10;53.90;;;;;;5010277;28;20457;-68
2023/05/30 09:39:26;;;;;;;5.47;4.10;;;21.20;55.20;;;;;;5010130;28;20469;-68
2023/05/30 09:41:58;;;;;;;6.07;4.20;;;21.30;54.80;;;;;;5010399;28;20541;-68
2023/05/30 09:44:26;;;;;;;8.17;4.60;;;21.40;54.40;;;;;;5010003;28;20449;-68
2023/05/30 09:46:57;;;;;;;6.60;4.40;;;21.30;52.60;;;;;;5010190;28;20545;-68
2023/05/30 09:49:28;;;;;;;4.60;4.20;;;21.40;53.90;;;;;;5010105;28;20489;-68
2023/05/30 09:51:56;;;;;;;4.13;3.63;;;21.90;55.60;;;;;;5010059;28;20446;-68
2023/05/30 09:54:24;;;;;;;6.47;4.10;;;22.60;52.60;;;;;;5009918;28;20536;-68
2023/05/30 09:56:53;;;;;;;5.90;4.37;;;23.30;55.30;;;;;;5010117;28;20569;-69
2023/05/30 09:59:23;;;;;;;6.17;5.00;;;24.10;48.80;;;;;;5008728;28;20561;-68
2023/05/30 10:01:51;;;;;;;6.37;4.17;;;23.90;47.70;;;;;;5010015;28;20936;-68
2023/05/30 10:04:22;;;;;;;7.63;4.40;;;23.50;48.80;;;;;;5009618;28;20525;-68
2023/05/30 10:06:51;;;;;;;8.83;4.20;;;23.60;51.00;;;;;;5009852;28;20481;-68
2023/05/30 10:09:21;;;;;;;6.00;4.30;;;24.20;51.00;;;;;;5009740;28;20556;-69
2023/05/30 10:11:50;;;;;;;10.40;7.90;;;25.20;48.10;;;;;;5010156;28;20445;-67
2023/05/30 10:14:18;;;;;;;5.83;4.70;;;24.50;46.10;;;;;;5009678;28;20438;-68
2023/05/30 10:16:51;;;;;;;4.77;4.30;;;24.70;45.90;;;;;;5010036;28;20454;-68
2023/05/30 10:19:23;;;;;;;11.07;5.07;;;25.00;50.40;;;;;;5009685;28;20540;-68
2023/05/30 10:21:54;;;;;;;7.30;4.30;;;25.30;47.20;;;;;;5010970;28;20446;-68
2023/05/30 10:24:27;;;;;;;6.33;4.40;;;25.30;48.00;;;;;;5013458;28;20894;-68
2023/05/30 10:26:56;;;;;;;4.87;4.37;;;25.60;44.40;;;;;;5013612;28;20504;-68
2023/05/30 10:29:28;;;;;;;8.70;4.63;;;25.30;43.70;;;;;;5013603;28;21258;-68
2023/05/30 10:32:00;;;;;;;10.03;4.70;;;25.50;45.50;;;;;;5013621;28;20540;-69
2023/05/30 10:34:35;;;;;;;7.20;4.97;;;25.90;45.60;;;;;;5013384;28;20449;-69
2023/05/30 10:37:03;;;;;;;7.00;4.57;;;26.40;45.50;;;;;;5013595;28;20453;-69
2023/05/30 10:39:38;;;;;;;6.80;4.40;;;26.80;41.50;;;;;;5013800;28;20469;-68
2023/05/30 10:42:13;;;;;;;10.13;4.30;;;25.90;42.30;;;;;;5013937;28;20484;-68
2023/05/30 10:44:54;;;;;;;6.83;4.10;;;25.10;42.90;;;;;;5013369;28;20465;-67
2023/05/30 10:47:34;;;;;;;7.30;4.27;;;24.50;44.70;;;;;;5013607;28;20918;-68
2023/05/30 10:50:08;;;;;;;7.10;4.30;;;24.20;44.40;;;;;;5013475;28;20529;-67
2023/05/30 10:52:36;;;;;;;6.63;4.30;;;23.80;44.80;;;;;;5013181;28;20456;-68
2023/05/30 10:55:09;;;;;;;5.37;4.00;;;23.80;45.60;;;;;;5013578;28;20522;-67
2023/05/30 10:57:37;;;;;;;6.63;5.20;;;23.60;43.80;;;;;;5013405;28;20906;-67
2023/05/30 11:00:18;;;;;;;8.17;4.77;;;23.70;45.60;;;;;;5013584;28;20442;-67
2023/05/30 11:02:52;;;;;;;6.50;4.80;;;24.40;45.70;;;;;;5012899;28;20565;-68
2023/05/30 11:05:24;;;;;;;5.20;4.30;;;25.30;46.00;;;;;;5013178;28;20441;-68
2023/05/30 11:07:52;;;;;;;4.67;3.93;;;25.80;45.50;;;;;;5013361;28;20441;-67
2023/05/30 11:10:26;;;;;;;5.23;3.90;;;26.40;44.00;;;;;;5012943;28;20533;-68
2023/05/30 11:13:06;;;;;;;5.47;4.93;;;26.60;41.50;;;;;;5012610;28;20480;-68
2023/05/30 11:15:35;;;;;;;4.43;4.00;;;27.20;42.70;;;;;;5012722;28;20998;-68
2023/05/30 11:18:16;;;;;;;6.00;4.47;;;26.80;39.30;;;;;;5012934;28;20458;-67
2023/05/30 11:20:54;;;;;;;6.80;4.13;;;26.70;39.90;;;;;;5012706;28;20447;-67
2023/05/30 11:23:24;;;;;;;6.10;4.47;;;26.10;39.40;;;;;;5012359;28;20491;-68
2023/05/30 11:25:56;;;;;;;5.50;4.40;;;26.40;41.00;;;;;;5012353;28;20445;-67
2023/05/30 11:28:35;;;;;;;7.03;4.50;;;27.20;41.00;;;;;;5012479;28;20469;-67
2023/05/30 11:31:19;;;;;;;5.20;4.70;;;28.20;38.50;;;;;;5012785;28;20531;-68
2023/05/30 11:33:51;;;;;;;6.93;3.93;;;28.80;39.20;;;;;;5012185;28;20798;-68
2023/05/30 11:36:21;;;;;;;5.63;4.00;;;28.60;36.50;;;;;;5012378;28;20810;-67
2023/05/30 11:38:52;;;;;;;6.03;4.40;;;28.40;40.40;;;;;;5012687;28;20512;-68
2023/05/30 11:41:22;;;;;;;5.30;4.07;;;28.20;37.40;;;;;;5012896;28;20875;-68
2023/05/30 11:43:51;;;;;;;4.87;4.37;;;28.10;36.40;;;;;;5012430;28;20476;-67
2023/05/30 11:46:19;;;;;;;6.37;4.40;;;27.10;37.40;;;;;;5012455;28;20488;-68
2023/05/30 11:48:49;;;;;;;5.83;5.10;;;26.90;37.40;;;;;;5012311;28;20481;-68
2023/05/30 11:51:17;;;;;;;5.93;4.03;;;27.00;38.10;;;;;;5012825;28;20469;-69
2023/05/30 11:53:46;;;;;;;6.77;4.03;;;27.50;38.80;;;;;;5012431;28;20457;-68
2023/05/30 11:56:15;;;;;;;7.13;4.30;;;27.40;37.70;;;;;;5012471;28;20442;-68
2023/05/30 11:58:43;;;;;;;10.43;4.67;;;26.80;37.30;;;;;;5012300;28;20468;-68
2023/05/30 12:01:11;;;;;;;8.63;4.13;;;26.20;38.80;;;;;;5012165;28;20888;-68
2023/05/30 12:03:43;;;;;;;8.43;4.40;;;26.70;41.30;;;;;;5011637;28;20450;-68
2023/05/30 12:06:13;;;;;;;5.60;4.57;;;27.30;38.70;;;;;;5011919;28;20936;-68
2023/05/30 12:08:42;;;;;;;5.20;4.73;;;26.00;39.30;;;;;;5011930;28;20466;-68
2023/05/30 12:11:11;;;;;;;6.70;4.20;;;24.70;42.10;;;;;;5011927;28;20450;-67
2023/05/30 12:13:39;;;;;;;4.33;3.93;;;24.80;43.40;;;;;;5011562;28;20445;-68
2023/05/30 12:16:08;;;;;;;6.70;4.30;;;26.20;44.40;;;;;;5012277;28;20449;-68
2023/05/30 12:18:36;;;;;;;5.10;3.70;;;28.00;42.70;;;;;;5011921;28;20470;-68
2023/05/30 12:21:04;;;;;;;9.40;3.80;;;29.70;37.20;;;;;;5011988;28;20474;-68
2023/05/30 12:23:41;;;;;;;6.50;3.87;;;31.20;35.40;;;;;;5011609;28;20877;-68
2023/05/30 12:26:16;;;;;;;6.60;4.60;;;31.70;35.00;;;;;;5011888;28;20920;-68
2023/05/30 12:28:45;;;;;;;4.30;3.90;;;30.80;32.20;;;;;;5011506;28;20468;-67
2023/05/30 12:31:22;;;;;;;7.13;4.70;;;29.10;34.10;;;;;;5011684;28;20492;-67
2023/05/30 12:33:50;;;;;;;4.93;4.20;;;27.90;35.90;;;;;;5011468;28;20952;-67
2023/05/30 12:36:19;;;;;;;5.77;4.43;;;26.30;38.70;;;;;;5011476;28;20532;-67
2023/05/30 12:38:58;;;;;;;6.23;4.50;;;25.80;40.50;;;;;;5011863;28;20976;-68
2023/05/30 12:41:28;;;;;;;4.43;4.03;;;26.10;39.10;;;;;;5011902;28;20438;-69
2023/05/30 12:43:56;;;;;;;8.67;4.40;;;27.00;38.00;;;;;;5010408;28;20956;-68
2023/05/30 12:46:27;;;;;;;5.60;3.67;;;28.60;37.30;;;;;;5011792;28;20473;-68
2023/05/30 12:48:55;;;;;;;6.67;4.50;;;29.90;34.10;;;;;;5011495;28;20471;-69
2023/05/30 12:51:23;;;;;;;8.23;4.10;;;31.00;36.20;;;;;;5011777;28;20576;-67
2023/05/30 12:53:53;;;;;;;11.13;4.60;;;32.20;33.50;;;;;;5011597;28;20995;-67
2023/05/30 12:56:23;;;;;;;5.17;3.90;;;30.90;31.70;;;;;;5011811;28;21037;-68